sensor_id;sensor_type;location;lat;lon;timestamp;temperature;humidity
7574;DHT22;3828;48.922;9.116;2022-09-01T00:02:01;15.70;99.90
7574;DHT22;3828;48.922;9.116;2022-09-01T00:04:36;15.50;99.90
7574;DHT22;3828;48.922;9.116;2022-09-01T00:09:32;15.50;99.90
7574;DHT22;3828;48.922;9.116;2022-09-01T00:12:00;15.50;99.90
7574;DHT22;3828;48.922;9.116;2022-09-01T00:14:31;15.40;99.90
7574;DHT22;3828;48.922;9.116;2022-09-01T00:17:00;15.40;99.90
7574;DHT22;3828;48.922;9.116;2022-09-01T00:19:28;15.30;99.90
7574;DHT22;3828;48.922;9.116;2022-09-01T00:21:56;15.30;99.90
7574;DHT22;3828;48.922;9.116;2022-09-01T00:24:25;15.30;99.90
7574;DHT22;3828;48.922;9.116;2022-09-01T00:26:53;15.50;99.90
7574;DHT22;3828;48.922;9.116;2022-09-01T00:29:24;15.20;99.90
7574;DHT22;3828;48.922;9.116;2022-09-01T00:31:52;15.20;99.90
7574;DHT22;3828;48.922;9.116;2022-09-01T00:34:21;15.20;99.90
7574;DHT22;3828;48.922;9.116;2022-09-01T00:36:48;15.20;99.90
7574;DHT22;3828;48.922;9.116;2022-09-01T00:39:15;16.90;99.90
7574;DHT22;3828;48.922;9.116;2022-09-01T00:41:43;15.20;99.90
7574;DHT22;3828;48.922;9.116;2022-09-01T00:44:14;15.20;99.90
7574;DHT22;3828;48.922;9.116;2022-09-01T00:46:43;15.20;99.90
7574;DHT22;3828;48.922;9.116;2022-09-01T00:49:14;17.80;99.90
7574;DHT22;3828;48.922;9.116;2022-09-01T00:51:43;16.30;99.90
7574;DHT22;3828;48.922;9.116;2022-09-01T00:54:21;15.10;99.90
7574;DHT22;3828;48.922;9.116;2022-09-01T00:56:50;15.10;99.90
7574;DHT22;3828;48.922;9.116;2022-09-01T00:59:20;18.10;99.90
7574;DHT22;3828;48.922;9.116;2022-09-01T01:01:47;17.20;99.90
7574;DHT22;3828;48.922;9.116;2022-09-01T01:04:14;15.60;99.90
7574;DHT22;3828;48.922;9.116;2022-09-01T01:06:42;15.00;99.90
7574;DHT22;3828;48.922;9.116;2022-09-01T01:09:14;17.30;99.90
7574;DHT22;3828;48.922;9.116;2022-09-01T01:11:41;14.90;99.90
7574;DHT22;3828;48.922;9.116;2022-09-01T01:14:18;14.90;99.90
7574;DHT22;3828;48.922;9.116;2022-09-01T01:16:49;14.90;99.90
7574;DHT22;3828;48.922;9.116;2022-09-01T01:19:22;15.80;99.90
7574;DHT22;3828;48.922;9.116;2022-09-01T01:22:12;15.80;99.90
7574;DHT22;3828;48.922;9.116;2022-09-01T01:25:02;14.90;99.90
7574;DHT22;3828;48.922;9.116;2022-09-01T01:27:31;14.70;99.90
7574;DHT22;3828;48.922;9.116;2022-09-01T01:29:59;15.00;99.90
7574;DHT22;3828;48.922;9.116;2022-09-01T01:32:27;14.80;99.90
7574;DHT22;3828;48.922;9.116;2022-09-01T01:34:54;15.00;99.90
7574;DHT22;3828;48.922;9.116;2022-09-01T01:37:21;14.80;99.90
7574;DHT22;3828;48.922;9.116;2022-09-01T01:39:50;14.70;99.90
7574;DHT22;3828;48.922;9.116;2022-09-01T01:42:19;14.70;99.90
7574;DHT22;3828;48.922;9.116;2022-09-01T01:44:48;15.90;99.90
7574;DHT22;3828;48.922;9.116;2022-09-01T01:47:15;14.70;99.90
7574;DHT22;3828;48.922;9.116;2022-09-01T01:49:44;17.70;99.90
7574;DHT22;3828;48.922;9.116;2022-09-01T01:52:12;17.50;99.90
7574;DHT22;3828;48.922;9.116;2022-09-01T01:54:42;16.90;99.90
7574;DHT22;3828;48.922;9.116;2022-09-01T01:57:11;17.00;99.90
7574;DHT22;3828;48.922;9.116;2022-09-01T01:59:43;16.00;99.90
7574;DHT22;3828;48.922;9.116;2022-09-01T02:02:10;14.50;99.90
7574;DHT22;3828;48.922;9.116;2022-09-01T02:04:37;15.40;99.90
7574;DHT22;3828;48.922;9.116;2022-09-01T02:07:08;14.40;99.90
7574;DHT22;3828;48.922;9.116;2022-09-01T02:09:37;14.40;99.90
7574;DHT22;3828;48.922;9.116;2022-09-01T02:12:06;14.40;99.90
7574;DHT22;3828;48.922;9.116;2022-09-01T02:14:33;14.40;99.90
7574;DHT22;3828;48.922;9.116;2022-09-01T02:17:02;14.30;99.90
7574;DHT22;3828;48.922;9.116;2022-09-01T02:19:30;14.40;99.90
7574;DHT22;3828;48.922;9.116;2022-09-01T02:21:58;15.40;99.90
7574;DHT22;3828;48.922;9.116;2022-09-01T02:24:25;14.30;99.90
7574;DHT22;3828;48.922;9.116;2022-09-01T02:26:55;16.40;99.90
7574;DHT22;3828;48.922;9.116;2022-09-01T02:29:22;17.40;99.90
7574;DHT22;3828;48.922;9.116;2022-09-01T02:31:54;16.70;99.90
7574;DHT22;3828;48.922;9.116;2022-09-01T02:34:24;18.20;99.90
7574;DHT22;3828;48.922;9.116;2022-09-01T02:36:53;14.20;99.90
7574;DHT22;3828;48.922;9.116;2022-09-01T02:39:22;14.20;99.90
7574;DHT22;3828;48.922;9.116;2022-09-01T02:41:49;14.70;99.90
7574;DHT22;3828;48.922;9.116;2022-09-01T02:44:16;16.30;99.90
7574;DHT22;3828;48.922;9.116;2022-09-01T02:46:44;14.20;99.90
7574;DHT22;3828;48.922;9.116;2022-09-01T02:49:14;15.80;99.90
7574;DHT22;3828;48.922;9.116;2022-09-01T02:51:48;14.20;99.90
7574;DHT22;3828;48.922;9.116;2022-09-01T02:54:16;14.20;99.90
7574;DHT22;3828;48.922;9.116;2022-09-01T02:56:44;15.00;99.90
7574;DHT22;3828;48.922;9.116;2022-09-01T02:59:12;17.90;99.90
7574;DHT22;3828;48.922;9.116;2022-09-01T03:01:40;16.20;99.90
7574;DHT22;3828;48.922;9.116;2022-09-01T03:04:08;14.20;99.90
7574;DHT22;3828;48.922;9.116;2022-09-01T03:06:37;14.10;99.90
7574;DHT22;3828;48.922;9.116;2022-09-01T03:09:07;14.10;99.90
7574;DHT22;3828;48.922;9.116;2022-09-01T03:11:38;14.10;99.90
7574;DHT22;3828;48.922;9.116;2022-09-01T03:14:05;14.00;99.90
7574;DHT22;3828;48.922;9.116;2022-09-01T03:16:33;14.10;99.90
7574;DHT22;3828;48.922;9.116;2022-09-01T03:19:00;15.60;99.90
7574;DHT22;3828;48.922;9.116;2022-09-01T03:21:28;16.70;99.90
7574;DHT22;3828;48.922;9.116;2022-09-01T03:23:56;14.40;99.90
7574;DHT22;3828;48.922;9.116;2022-09-01T03:26:28;16.80;99.90
7574;DHT22;3828;48.922;9.116;2022-09-01T03:28:55;13.90;99.90
7574;DHT22;3828;48.922;9.116;2022-09-01T03:31:23;13.90;99.90
7574;DHT22;3828;48.922;9.116;2022-09-01T03:33:52;13.90;99.90
7574;DHT22;3828;48.922;9.116;2022-09-01T03:36:22;18.00;99.90
7574;DHT22;3828;48.922;9.116;2022-09-01T03:38:51;13.80;99.90
7574;DHT22;3828;48.922;9.116;2022-09-01T03:41:20;10.50;99.90
7574;DHT22;3828;48.922;9.116;2022-09-01T03:43:48;13.70;99.90
7574;DHT22;3828;48.922;9.116;2022-09-01T03:46:16;13.70;99.90
7574;DHT22;3828;48.922;9.116;2022-09-01T03:48:46;13.70;99.90
7574;DHT22;3828;48.922;9.116;2022-09-01T03:51:15;13.70;99.90
7574;DHT22;3828;48.922;9.116;2022-09-01T03:53:42;13.80;99.90
7574;DHT22;3828;48.922;9.116;2022-09-01T03:56:10;14.30;99.90
7574;DHT22;3828;48.922;9.116;2022-09-01T03:58:39;16.50;99.90
7574;DHT22;3828;48.922;9.116;2022-09-01T04:01:13;13.70;99.90
7574;DHT22;3828;48.922;9.116;2022-09-01T04:03:40;13.70;99.90
7574;DHT22;3828;48.922;9.116;2022-09-01T04:06:09;13.70;99.90
7574;DHT22;3828;48.922;9.116;2022-09-01T04:08:37;13.70;99.90
7574;DHT22;3828;48.922;9.116;2022-09-01T04:11:10;13.70;99.90
7574;DHT22;3828;48.922;9.116;2022-09-01T04:13:41;16.70;99.90
7574;DHT22;3828;48.922;9.116;2022-09-01T04:16:27;15.60;99.90
7574;DHT22;3828;48.922;9.116;2022-09-01T04:19:14;13.70;99.90
7574;DHT22;3828;48.922;9.116;2022-09-01T04:21:44;17.00;99.90
7574;DHT22;3828;48.922;9.116;2022-09-01T04:24:12;16.70;99.90
7574;DHT22;3828;48.922;9.116;2022-09-01T04:27:02;14.40;99.90
7574;DHT22;3828;48.922;9.116;2022-09-01T04:29:31;13.60;99.90
7574;DHT22;3828;48.922;9.116;2022-09-01T04:32:02;13.70;99.90
7574;DHT22;3828;48.922;9.116;2022-09-01T04:34:34;13.60;99.90
7574;DHT22;3828;48.922;9.116;2022-09-01T04:37:05;13.60;99.90
7574;DHT22;3828;48.922;9.116;2022-09-01T04:39:32;16.60;99.90
7574;DHT22;3828;48.922;9.116;2022-09-01T04:42:01;16.00;99.90
7574;DHT22;3828;48.922;9.116;2022-09-01T04:44:29;13.60;99.90
7574;DHT22;3828;48.922;9.116;2022-09-01T04:46:55;13.60;99.90
7574;DHT22;3828;48.922;9.116;2022-09-01T04:49:24;13.60;99.90
7574;DHT22;3828;48.922;9.116;2022-09-01T04:51:52;13.50;99.90
7574;DHT22;3828;48.922;9.116;2022-09-01T04:54:22;15.50;99.90
7574;DHT22;3828;48.922;9.116;2022-09-01T04:56:49;15.00;99.90
7574;DHT22;3828;48.922;9.116;2022-09-01T04:59:18;14.70;99.90
7574;DHT22;3828;48.922;9.116;2022-09-01T05:01:46;16.10;99.90
7574;DHT22;3828;48.922;9.116;2022-09-01T05:04:20;14.70;99.90
7574;DHT22;3828;48.922;9.116;2022-09-01T05:06:51;13.70;99.90
7574;DHT22;3828;48.922;9.116;2022-09-01T05:09:25;13.80;99.90
7574;DHT22;3828;48.922;9.116;2022-09-01T05:11:53;14.80;99.90
7574;DHT22;3828;48.922;9.116;2022-09-01T05:14:22;17.40;99.90
7574;DHT22;3828;48.922;9.116;2022-09-01T05:16:55;13.90;99.90
7574;DHT22;3828;48.922;9.116;2022-09-01T05:19:23;14.10;99.90
7574;DHT22;3828;48.922;9.116;2022-09-01T05:21:54;16.30;99.90
7574;DHT22;3828;48.922;9.116;2022-09-01T05:24:22;14.00;99.90
7574;DHT22;3828;48.922;9.116;2022-09-01T05:26:54;14.10;99.90
7574;DHT22;3828;48.922;9.116;2022-09-01T05:29:22;14.70;99.90
7574;DHT22;3828;48.922;9.116;2022-09-01T05:31:52;15.50;99.90
7574;DHT22;3828;48.922;9.116;2022-09-01T05:34:20;14.30;99.90
7574;DHT22;3828;48.922;9.116;2022-09-01T05:36:56;16.40;99.90
7574;DHT22;3828;48.922;9.116;2022-09-01T05:39:36;14.30;99.90
7574;DHT22;3828;48.922;9.116;2022-09-01T05:42:03;14.40;99.90
7574;DHT22;3828;48.922;9.116;2022-09-01T05:44:32;14.40;99.90
7574;DHT22;3828;48.922;9.116;2022-09-01T05:47:09;15.00;99.90
7574;DHT22;3828;48.922;9.116;2022-09-01T05:49:51;14.60;99.90
7574;DHT22;3828;48.922;9.116;2022-09-01T05:52:19;14.70;99.90
7574;DHT22;3828;48.922;9.116;2022-09-01T05:54:50;15.80;99.90
7574;DHT22;3828;48.922;9.116;2022-09-01T05:57:17;14.90;99.90
7574;DHT22;3828;48.922;9.116;2022-09-01T05:59:47;15.00;99.90
7574;DHT22;3828;48.922;9.116;2022-09-01T06:02:19;16.40;99.90
7574;DHT22;3828;48.922;9.116;2022-09-01T06:04:46;15.30;99.90
7574;DHT22;3828;48.922;9.116;2022-09-01T06:07:14;17.90;99.90
7574;DHT22;3828;48.922;9.116;2022-09-01T06:09:46;18.00;99.90
7574;DHT22;3828;48.922;9.116;2022-09-01T06:12:14;15.70;99.90
7574;DHT22;3828;48.922;9.116;2022-09-01T06:14:52;17.10;99.90
7574;DHT22;3828;48.922;9.116;2022-09-01T06:17:21;16.00;99.90
7574;DHT22;3828;48.922;9.116;2022-09-01T06:19:49;16.20;99.90
7574;DHT22;3828;48.922;9.116;2022-09-01T06:22:17;16.30;99.90
7574;DHT22;3828;48.922;9.116;2022-09-01T06:24:46;18.90;99.90
7574;DHT22;3828;48.922;9.116;2022-09-01T06:27:13;16.80;99.90
7574;DHT22;3828;48.922;9.116;2022-09-01T06:29:42;16.70;99.90
7574;DHT22;3828;48.922;9.116;2022-09-01T06:32:10;16.80;99.90
7574;DHT22;3828;48.922;9.116;2022-09-01T06:34:38;16.90;99.90
7574;DHT22;3828;48.922;9.116;2022-09-01T06:37:06;18.60;99.90
7574;DHT22;3828;48.922;9.116;2022-09-01T06:39:34;21.10;99.90
7574;DHT22;3828;48.922;9.116;2022-09-01T06:42:02;17.40;99.90
7574;DHT22;3828;48.922;9.116;2022-09-01T06:44:29;17.60;99.90
7574;DHT22;3828;48.922;9.116;2022-09-01T06:46:57;17.80;99.90
7574;DHT22;3828;48.922;9.116;2022-09-01T06:49:25;17.90;99.90
7574;DHT22;3828;48.922;9.116;2022-09-01T06:51:57;18.00;99.90
7574;DHT22;3828;48.922;9.116;2022-09-01T06:54:24;18.20;99.90
7574;DHT22;3828;48.922;9.116;2022-09-01T06:56:51;18.60;99.90
7574;DHT22;3828;48.922;9.116;2022-09-01T06:59:20;18.50;99.90
7574;DHT22;3828;48.922;9.116;2022-09-01T07:01:48;18.60;99.90
7574;DHT22;3828;48.922;9.116;2022-09-01T07:04:16;19.10;99.90
7574;DHT22;3828;48.922;9.116;2022-09-01T07:06:44;18.70;99.90
7574;DHT22;3828;48.922;9.116;2022-09-01T07:09:17;19.00;99.90
7574;DHT22;3828;48.922;9.116;2022-09-01T07:11:44;19.10;99.90
7574;DHT22;3828;48.922;9.116;2022-09-01T07:14:11;19.30;99.90
7574;DHT22;3828;48.922;9.116;2022-09-01T07:16:42;19.50;99.90
7574;DHT22;3828;48.922;9.116;2022-09-01T07:19:12;19.60;99.90
7574;DHT22;3828;48.922;9.116;2022-09-01T07:21:40;20.30;99.90
7574;DHT22;3828;48.922;9.116;2022-09-01T07:24:08;20.00;99.90
7574;DHT22;3828;48.922;9.116;2022-09-01T07:26:36;20.70;99.90
7574;DHT22;3828;48.922;9.116;2022-09-01T07:29:06;20.20;99.90
7574;DHT22;3828;48.922;9.116;2022-09-01T07:31:36;20.30;99.90
7574;DHT22;3828;48.922;9.116;2022-09-01T07:34:06;20.50;99.90
7574;DHT22;3828;48.922;9.116;2022-09-01T07:36:37;23.40;99.90
7574;DHT22;3828;48.922;9.116;2022-09-01T07:39:05;20.90;99.90
7574;DHT22;3828;48.922;9.116;2022-09-01T07:41:32;21.10;99.90
7574;DHT22;3828;48.922;9.116;2022-09-01T07:44:00;24.80;99.90
7574;DHT22;3828;48.922;9.116;2022-09-01T07:46:28;22.20;99.90
7574;DHT22;3828;48.922;9.116;2022-09-01T07:48:56;25.40;99.90
7574;DHT22;3828;48.922;9.116;2022-09-01T07:51:25;22.10;99.90
7574;DHT22;3828;48.922;9.116;2022-09-01T07:53:52;22.20;99.90
7574;DHT22;3828;48.922;9.116;2022-09-01T07:56:20;22.20;99.90
7574;DHT22;3828;48.922;9.116;2022-09-01T07:58:49;22.20;99.90
7574;DHT22;3828;48.922;9.116;2022-09-01T08:01:18;23.00;99.90
7574;DHT22;3828;48.922;9.116;2022-09-01T08:03:47;22.50;99.90
7574;DHT22;3828;48.922;9.116;2022-09-01T08:06:17;22.70;99.90
7574;DHT22;3828;48.922;9.116;2022-09-01T08:08:47;22.80;99.90
7574;DHT22;3828;48.922;9.116;2022-09-01T08:11:18;22.80;99.90
7574;DHT22;3828;48.922;9.116;2022-09-01T08:13:45;22.70;99.90
7574;DHT22;3828;48.922;9.116;2022-09-01T08:16:13;22.50;99.90
7574;DHT22;3828;48.922;9.116;2022-09-01T08:18:40;25.60;99.90
7574;DHT22;3828;48.922;9.116;2022-09-01T08:21:09;22.00;99.90
7574;DHT22;3828;48.922;9.116;2022-09-01T08:23:36;21.80;99.90
7574;DHT22;3828;48.922;9.116;2022-09-01T08:26:06;22.10;99.90
7574;DHT22;3828;48.922;9.116;2022-09-01T08:28:33;22.00;99.90
7574;DHT22;3828;48.922;9.116;2022-09-01T08:31:05;23.90;99.90
7574;DHT22;3828;48.922;9.116;2022-09-01T08:33:32;22.00;99.90
7574;DHT22;3828;48.922;9.116;2022-09-01T08:36:00;22.30;99.90
7574;DHT22;3828;48.922;9.116;2022-09-01T08:38:27;22.60;99.90
7574;DHT22;3828;48.922;9.116;2022-09-01T08:40:55;22.90;99.90
7574;DHT22;3828;48.922;9.116;2022-09-01T08:43:30;23.00;99.90
7574;DHT22;3828;48.922;9.116;2022-09-01T08:46:07;22.90;99.90
7574;DHT22;3828;48.922;9.116;2022-09-01T08:48:37;22.70;99.90
7574;DHT22;3828;48.922;9.116;2022-09-01T08:51:13;22.40;99.90
7574;DHT22;3828;48.922;9.116;2022-09-01T08:53:46;22.40;99.90
7574;DHT22;3828;48.922;9.116;2022-09-01T08:56:17;22.40;99.90
7574;DHT22;3828;48.922;9.116;2022-09-01T08:58:45;22.20;99.90
7574;DHT22;3828;48.922;9.116;2022-09-01T09:01:16;22.10;99.90
7574;DHT22;3828;48.922;9.116;2022-09-01T09:03:55;22.10;99.90
7574;DHT22;3828;48.922;9.116;2022-09-01T09:06:32;21.90;99.90
7574;DHT22;3828;48.922;9.116;2022-09-01T09:09:03;22.90;99.90
7574;DHT22;3828;48.922;9.116;2022-09-01T09:11:52;22.30;99.90
7574;DHT22;3828;48.922;9.116;2022-09-01T09:14:50;21.90;99.90
7574;DHT22;3828;48.922;9.116;2022-09-01T09:17:23;21.90;99.90
7574;DHT22;3828;48.922;9.116;2022-09-01T09:19:53;21.90;99.90
7574;DHT22;3828;48.922;9.116;2022-09-01T09:22:20;22.10;99.90
7574;DHT22;3828;48.922;9.116;2022-09-01T09:24:49;23.60;99.90
7574;DHT22;3828;48.922;9.116;2022-09-01T09:27:21;22.30;99.90
7574;DHT22;3828;48.922;9.116;2022-09-01T09:29:52;22.30;99.90
7574;DHT22;3828;48.922;9.116;2022-09-01T09:32:20;22.30;99.90
7574;DHT22;3828;48.922;9.116;2022-09-01T09:34:48;22.20;99.90
7574;DHT22;3828;48.922;9.116;2022-09-01T09:37:23;21.80;99.90
7574;DHT22;3828;48.922;9.116;2022-09-01T09:40:03;21.50;99.90
7574;DHT22;3828;48.922;9.116;2022-09-01T09:42:32;21.30;99.90
7574;DHT22;3828;48.922;9.116;2022-09-01T09:45:00;21.20;99.90
7574;DHT22;3828;48.922;9.116;2022-09-01T09:47:37;21.10;99.90
7574;DHT22;3828;48.922;9.116;2022-09-01T09:50:19;21.40;99.90
7574;DHT22;3828;48.922;9.116;2022-09-01T09:52:48;21.50;99.90
7574;DHT22;3828;48.922;9.116;2022-09-01T09:55:22;21.60;99.90
7574;DHT22;3828;48.922;9.116;2022-09-01T09:57:54;21.90;99.90
7574;DHT22;3828;48.922;9.116;2022-09-01T10:00:25;22.80;99.90
7574;DHT22;3828;48.922;9.116;2022-09-01T10:02:54;22.00;99.90
7574;DHT22;3828;48.922;9.116;2022-09-01T10:05:32;22.20;99.90
7574;DHT22;3828;48.922;9.116;2022-09-01T10:08:00;22.30;99.90
7574;DHT22;3828;48.922;9.116;2022-09-01T10:10:30;22.30;99.90
7574;DHT22;3828;48.922;9.116;2022-09-01T10:12:58;22.00;99.90
7574;DHT22;3828;48.922;9.116;2022-09-01T10:15:29;22.00;99.90
7574;DHT22;3828;48.922;9.116;2022-09-01T10:18:01;22.10;99.90
7574;DHT22;3828;48.922;9.116;2022-09-01T10:20:30;22.30;99.90
7574;DHT22;3828;48.922;9.116;2022-09-01T10:23:01;22.60;99.90
7574;DHT22;3828;48.922;9.116;2022-09-01T10:25:29;23.10;99.90
7574;DHT22;3828;48.922;9.116;2022-09-01T10:28:03;23.60;99.90
7574;DHT22;3828;48.922;9.116;2022-09-01T10:30:36;23.70;99.90
7574;DHT22;3828;48.922;9.116;2022-09-01T10:33:07;23.70;99.90
7574;DHT22;3828;48.922;9.116;2022-09-01T10:35:36;23.60;99.90
7574;DHT22;3828;48.922;9.116;2022-09-01T10:38:06;23.70;99.90
7574;DHT22;3828;48.922;9.116;2022-09-01T10:40:38;24.00;99.90
7574;DHT22;3828;48.922;9.116;2022-09-01T10:43:39;23.80;99.90
7574;DHT22;3828;48.922;9.116;2022-09-01T10:55:43;23.90;99.90
7574;DHT22;3828;48.922;9.116;2022-09-01T10:58:32;24.50;99.90
7574;DHT22;3828;48.922;9.116;2022-09-01T11:01:01;24.90;99.90
7574;DHT22;3828;48.922;9.116;2022-09-01T11:03:58;24.80;99.90
7574;DHT22;3828;48.922;9.116;2022-09-01T11:06:42;24.30;99.90
7574;DHT22;3828;48.922;9.116;2022-09-01T11:09:18;24.10;99.90
7574;DHT22;3828;48.922;9.116;2022-09-01T11:11:55;23.60;99.90
7574;DHT22;3828;48.922;9.116;2022-09-01T11:14:26;23.50;99.90
7574;DHT22;3828;48.922;9.116;2022-09-01T11:17:15;23.40;99.90
7574;DHT22;3828;48.922;9.116;2022-09-01T11:19:43;23.30;99.90
7574;DHT22;3828;48.922;9.116;2022-09-01T11:22:23;23.40;99.90
7574;DHT22;3828;48.922;9.116;2022-09-01T11:25:05;23.90;99.90
7574;DHT22;3828;48.922;9.116;2022-09-01T11:27:57;24.60;99.90
7574;DHT22;3828;48.922;9.116;2022-09-01T11:30:33;25.40;99.90
7574;DHT22;3828;48.922;9.116;2022-09-01T11:33:10;28.00;99.90
7574;DHT22;3828;48.922;9.116;2022-09-01T11:35:38;27.90;99.90
7574;DHT22;3828;48.922;9.116;2022-09-01T11:38:06;28.60;99.90
7574;DHT22;3828;48.922;9.116;2022-09-01T11:40:35;28.50;99.90
7574;DHT22;3828;48.922;9.116;2022-09-01T11:43:06;27.50;99.90
7574;DHT22;3828;48.922;9.116;2022-09-01T11:45:38;26.90;99.90
7574;DHT22;3828;48.922;9.116;2022-09-01T11:48:12;27.50;99.90
7574;DHT22;3828;48.922;9.116;2022-09-01T11:50:41;27.60;99.90
7574;DHT22;3828;48.922;9.116;2022-09-01T11:53:11;28.30;99.90
7574;DHT22;3828;48.922;9.116;2022-09-01T11:55:41;29.80;99.90
7574;DHT22;3828;48.922;9.116;2022-09-01T11:58:12;29.80;99.90
7574;DHT22;3828;48.922;9.116;2022-09-01T12:00:41;30.30;99.90
7574;DHT22;3828;48.922;9.116;2022-09-01T12:03:19;30.30;99.90
7574;DHT22;3828;48.922;9.116;2022-09-01T12:05:47;30.50;99.90
7574;DHT22;3828;48.922;9.116;2022-09-01T12:08:19;31.00;99.90
7574;DHT22;3828;48.922;9.116;2022-09-01T12:10:46;31.10;99.90
7574;DHT22;3828;48.922;9.116;2022-09-01T12:13:19;31.20;99.90
7574;DHT22;3828;48.922;9.116;2022-09-01T12:15:53;31.10;99.90
7574;DHT22;3828;48.922;9.116;2022-09-01T12:18:22;30.70;99.90
7574;DHT22;3828;48.922;9.116;2022-09-01T12:20:53;30.00;99.90
7574;DHT22;3828;48.922;9.116;2022-09-01T12:23:24;30.40;99.90
7574;DHT22;3828;48.922;9.116;2022-09-01T12:25:53;31.10;99.90
7574;DHT22;3828;48.922;9.116;2022-09-01T12:28:23;31.30;99.40
7574;DHT22;3828;48.922;9.116;2022-09-01T12:30:51;31.60;98.40
7574;DHT22;3828;48.922;9.116;2022-09-01T12:33:20;31.20;98.80
7574;DHT22;3828;48.922;9.116;2022-09-01T12:35:47;31.10;98.00
7574;DHT22;3828;48.922;9.116;2022-09-01T12:38:25;31.30;99.80
7574;DHT22;3828;48.922;9.116;2022-09-01T12:40:55;31.30;98.00
7574;DHT22;3828;48.922;9.116;2022-09-01T12:43:33;30.10;99.60
7574;DHT22;3828;48.922;9.116;2022-09-01T12:46:02;30.20;99.90
7574;DHT22;3828;48.922;9.116;2022-09-01T12:48:31;28.70;99.90
7574;DHT22;3828;48.922;9.116;2022-09-01T12:50:59;27.70;99.90
7574;DHT22;3828;48.922;9.116;2022-09-01T12:53:28;27.00;99.90
7574;DHT22;3828;48.922;9.116;2022-09-01T12:56:09;27.00;99.90
7574;DHT22;3828;48.922;9.116;2022-09-01T12:58:45;26.80;99.90
7574;DHT22;3828;48.922;9.116;2022-09-01T13:01:25;27.50;99.90
7574;DHT22;3828;48.922;9.116;2022-09-01T13:04:14;29.00;99.90
7574;DHT22;3828;48.922;9.116;2022-09-01T13:06:42;30.20;99.30
7574;DHT22;3828;48.922;9.116;2022-09-01T13:09:08;31.20;98.20
7574;DHT22;3828;48.922;9.116;2022-09-01T13:11:35;32.00;97.90
7574;DHT22;3828;48.922;9.116;2022-09-01T13:14:04;31.30;97.10
7574;DHT22;3828;48.922;9.116;2022-09-01T13:16:30;30.70;97.70
7574;DHT22;3828;48.922;9.116;2022-09-01T13:18:57;30.10;97.90
7574;DHT22;3828;48.922;9.116;2022-09-01T13:21:24;30.40;98.70
7574;DHT22;3828;48.922;9.116;2022-09-01T13:23:52;30.70;98.70
7574;DHT22;3828;48.922;9.116;2022-09-01T13:26:18;31.30;97.90
7574;DHT22;3828;48.922;9.116;2022-09-01T13:28:45;32.20;98.30
7574;DHT22;3828;48.922;9.116;2022-09-01T13:31:13;32.60;97.30
7574;DHT22;3828;48.922;9.116;2022-09-01T13:33:40;32.70;96.30
7574;DHT22;3828;48.922;9.116;2022-09-01T13:36:07;32.40;96.90
7574;DHT22;3828;48.922;9.116;2022-09-01T13:38:34;31.90;96.30
7574;DHT22;3828;48.922;9.116;2022-09-01T13:41:01;31.70;95.70
7574;DHT22;3828;48.922;9.116;2022-09-01T13:43:28;31.20;96.00
7574;DHT22;3828;48.922;9.116;2022-09-01T13:45:56;30.80;96.50
7574;DHT22;3828;48.922;9.116;2022-09-01T13:48:24;29.70;95.30
7574;DHT22;3828;48.922;9.116;2022-09-01T13:50:53;28.80;96.50
7574;DHT22;3828;48.922;9.116;2022-09-01T13:53:20;28.30;97.60
7574;DHT22;3828;48.922;9.116;2022-09-01T13:55:47;27.90;98.50
7574;DHT22;3828;48.922;9.116;2022-09-01T13:58:14;28.00;99.00
7574;DHT22;3828;48.922;9.116;2022-09-01T14:00:44;27.90;99.30
7574;DHT22;3828;48.922;9.116;2022-09-01T14:03:14;28.80;98.60
7574;DHT22;3828;48.922;9.116;2022-09-01T14:05:45;27.30;98.60
7574;DHT22;3828;48.922;9.116;2022-09-01T14:08:13;27.20;99.10
7574;DHT22;3828;48.922;9.116;2022-09-01T14:10:42;27.90;99.60
7574;DHT22;3828;48.922;9.116;2022-09-01T14:13:10;28.60;97.80
7574;DHT22;3828;48.922;9.116;2022-09-01T14:15:40;30.10;97.50
7574;DHT22;3828;48.922;9.116;2022-09-01T14:18:07;31.00;96.20
7574;DHT22;3828;48.922;9.116;2022-09-01T14:20:36;32.00;95.20
7574;DHT22;3828;48.922;9.116;2022-09-01T14:23:06;32.40;94.80
7574;DHT22;3828;48.922;9.116;2022-09-01T14:25:35;32.20;94.30
7574;DHT22;3828;48.922;9.116;2022-09-01T14:28:03;31.70;93.90
7574;DHT22;3828;48.922;9.116;2022-09-01T14:30:31;30.60;94.20
7574;DHT22;3828;48.922;9.116;2022-09-01T14:32:58;29.30;95.80
7574;DHT22;3828;48.922;9.116;2022-09-01T14:35:26;28.30;96.90
7574;DHT22;3828;48.922;9.116;2022-09-01T14:37:54;27.50;97.50
7574;DHT22;3828;48.922;9.116;2022-09-01T14:40:25;27.60;98.00
7574;DHT22;3828;48.922;9.116;2022-09-01T14:42:54;27.60;98.20
7574;DHT22;3828;48.922;9.116;2022-09-01T14:45:22;27.70;98.80
7574;DHT22;3828;48.922;9.116;2022-09-01T14:47:51;28.50;97.70
7574;DHT22;3828;48.922;9.116;2022-09-01T14:50:20;28.70;96.80
7574;DHT22;3828;48.922;9.116;2022-09-01T14:52:49;29.00;97.00
7574;DHT22;3828;48.922;9.116;2022-09-01T14:55:17;31.00;97.20
7574;DHT22;3828;48.922;9.116;2022-09-01T14:57:45;29.30;96.50
7574;DHT22;3828;48.922;9.116;2022-09-01T15:00:12;29.10;96.60
7574;DHT22;3828;48.922;9.116;2022-09-01T15:02:40;28.80;97.10
7574;DHT22;3828;48.922;9.116;2022-09-01T15:05:09;29.20;97.10
7574;DHT22;3828;48.922;9.116;2022-09-01T15:07:37;30.00;96.60
7574;DHT22;3828;48.922;9.116;2022-09-01T15:10:06;30.20;96.00
7574;DHT22;3828;48.922;9.116;2022-09-01T15:12:36;30.70;96.00
7574;DHT22;3828;48.922;9.116;2022-09-01T15:15:07;31.30;95.10
7574;DHT22;3828;48.922;9.116;2022-09-01T15:17:34;31.40;94.80
7574;DHT22;3828;48.922;9.116;2022-09-01T15:20:04;31.00;94.50
7574;DHT22;3828;48.922;9.116;2022-09-01T15:22:45;30.40;95.40
7574;DHT22;3828;48.922;9.116;2022-09-01T15:25:14;31.10;95.80
7574;DHT22;3828;48.922;9.116;2022-09-01T15:27:41;30.80;95.20
7574;DHT22;3828;48.922;9.116;2022-09-01T15:30:11;30.60;95.50
7574;DHT22;3828;48.922;9.116;2022-09-01T15:32:51;30.50;94.70
7574;DHT22;3828;48.922;9.116;2022-09-01T15:35:19;31.20;94.90
7574;DHT22;3828;48.922;9.116;2022-09-01T15:37:56;30.20;94.90
7574;DHT22;3828;48.922;9.116;2022-09-01T15:40:24;29.70;94.70
7574;DHT22;3828;48.922;9.116;2022-09-01T15:42:51;28.90;95.30
7574;DHT22;3828;48.922;9.116;2022-09-01T15:45:22;28.30;95.80
7574;DHT22;3828;48.922;9.116;2022-09-01T15:47:49;27.90;96.50
7574;DHT22;3828;48.922;9.116;2022-09-01T15:50:19;27.20;97.60
7574;DHT22;3828;48.922;9.116;2022-09-01T15:52:49;26.50;98.30
7574;DHT22;3828;48.922;9.116;2022-09-01T15:55:17;26.20;98.50
7574;DHT22;3828;48.922;9.116;2022-09-01T15:57:44;25.90;98.80
7574;DHT22;3828;48.922;9.116;2022-09-01T16:00:12;26.00;99.10
7574;DHT22;3828;48.922;9.116;2022-09-01T16:02:40;25.30;99.90
7574;DHT22;3828;48.922;9.116;2022-09-01T16:05:08;26.70;99.90
7574;DHT22;3828;48.922;9.116;2022-09-01T16:07:35;24.90;99.90
7574;DHT22;3828;48.922;9.116;2022-09-01T16:10:03;24.70;99.90
7574;DHT22;3828;48.922;9.116;2022-09-01T16:12:30;24.60;99.90
7574;DHT22;3828;48.922;9.116;2022-09-01T16:15:00;24.40;99.90
7574;DHT22;3828;48.922;9.116;2022-09-01T16:17:44;24.40;99.90
7574;DHT22;3828;48.922;9.116;2022-09-01T16:20:18;24.20;99.90
7574;DHT22;3828;48.922;9.116;2022-09-01T16:22:51;24.30;99.90
7574;DHT22;3828;48.922;9.116;2022-09-01T16:25:24;24.10;99.90
7574;DHT22;3828;48.922;9.116;2022-09-01T16:27:52;23.90;99.90
7574;DHT22;3828;48.922;9.116;2022-09-01T16:30:23;24.00;99.90
7574;DHT22;3828;48.922;9.116;2022-09-01T16:32:55;23.90;99.90
7574;DHT22;3828;48.922;9.116;2022-09-01T16:35:25;24.60;99.90